Latest Weather Observations for Holsworthy

IDN60801

Issued at 6:32 pm EST Saturday 23 May 2015 (issued every 30 minutes, with the page automatically refreshed every 10 minutes)

About weather observations | Map of weather stations | Latest weather observations for NSW | Other Formats
Station Details ID: 066161 Name: HOLSWORTHY AERODROME AWS Lat: -33.99 Lon: 150.95 Height: 68.16 m
Data from the previous 72 hours. | See also: Recent months at Holsworthy
Date/Time
EST
Temp
°C
App
Temp
°C
Dew
Point
Rel
Hum
%
Delta-T
°C
Wind Press
QNH
hPa
Press
MSL
hPa
Rain
since 9 am
mm
Dir
 
Spd
km/h
Gust
km/h
Spd
kts
Gust
kts
23/06:30pm 12.2 9.2 7.9 75 2.1 SSE 13 15 7 8 1029.2 1029.2 0.0
23/06:00pm 12.4 9.4 7.9 74 2.2 SSE 13 15 7 8 1029.1 1029.1 0.0
23/05:30pm 13.1 10.2 8.0 71 2.5 SSE 13 15 7 8 1028.8 1028.8 0.0
23/05:00pm 13.8 11.3 8.0 68 2.9 SE 11 13 6 7 1028.7 1028.7 0.0
23/04:30pm 15.0 12.0 7.8 62 3.6 SSE 13 17 7 9 1028.7 1028.7 0.0
23/04:00pm 15.9 13.3 7.7 58 4.1 SSE 11 17 6 9 1028.6 1028.6 0.0
23/03:30pm 16.6 13.6 7.5 55 4.6 SSE 13 19 7 10 1028.4 1028.4 0.0
23/03:00pm 16.7 13.2 7.4 54 4.6 SE 15 20 8 11 1028.1 1028.1 0.0
23/02:30pm 17.5 14.5 7.8 53 4.9 S 13 19 7 10 1028.1 1028.1 0.0
23/02:00pm 17.4 14.0 7.5 52 5.0 SSE 15 24 8 13 1028.1 1028.1 0.0
23/01:30pm 17.0 13.4 8.2 56 4.5 SSE 17 26 9 14 1028.1 1028.1 0.0
23/01:00pm 17.6 14.0 8.5 55 4.7 S 17 26 9 14 1028.2 1028.2 0.0
23/12:30pm 17.4 14.4 9.1 58 4.3 S 15 22 8 12 1028.2 1028.2 0.0
23/12:00pm 17.4 13.9 8.8 57 4.4 SSW 17 26 9 14 1028.4 1028.4 0.0
23/11:30am 17.2 14.0 9.9 62 3.9 SW 17 26 9 14 1028.8 1028.8 0.0
23/10:30am 15.3 11.7 8.5 64 3.5 SW 17 22 9 12 1029.4 1029.4 0.0
23/10:00am 14.2 9.9 7.7 65 3.2 SW 20 28 11 15 1029.6 1029.5 0.0
23/09:30am 13.3 9.1 7.5 68 2.8 SW 19 28 10 15 1029.4 1029.4 0.0
23/09:00am 12.2 7.6 6.5 68 2.7 SW 20 28 11 15 1029.3 1029.3 14.4
23/08:30am 11.3 7.3 6.8 74 2.1 WSW 17 32 9 17 1029.2 1029.2 14.4
23/08:00am 10.2 6.1 6.0 75 1.9 SW 17 24 9 13 1028.8 1028.8 14.4
23/07:30am 10.4 6.3 6.2 75 2.0 SW 17 24 9 13 1028.7 1028.7 14.4
23/07:00am 10.6 6.1 6.0 73 2.1 SW 19 28 10 15 1028.4 1028.4 14.4
23/06:30am 10.4 5.4 6.5 77 1.8 SW 22 35 12 19 1027.8 1027.8 14.4
23/06:00am 10.2 5.7 7.1 81 1.5 SW 20 30 11 16 1027.4 1027.4 14.4
23/05:30am 9.7 5.8 7.3 85 1.1 SW 17 24 9 13 1026.9 1026.9 14.4
23/05:00am 9.3 5.9 7.6 89 0.8 SW 15 20 8 11 1026.6 1026.6 14.4
23/04:30am 9.4 6.5 8.0 91 0.7 SW 13 20 7 11 1026.4 1026.4 14.4
23/04:00am 9.5 6.6 8.3 92 0.6 SW 13 20 7 11 1026.4 1026.4 14.4
23/03:30am 9.8 7.5 8.9 94 0.4 WSW 11 15 6 8 1026.4 1026.4 14.4
23/03:00am 10.3 8.1 9.5 95 0.4 WSW 11 17 6 9 1026.6 1026.6 14.4
23/02:30am 10.7 9.1 10.1 96 0.3 WSW 9 13 5 7 1026.7 1026.7 14.4
23/02:00am 10.9 8.6 10.4 97 0.3 SW 13 20 7 11 1027.0 1027.0 14.4
23/01:30am 11.1 8.8 10.6 97 0.3 WSW 13 17 7 9 1027.0 1027.0 14.4
23/01:00am 11.1 8.8 10.6 97 0.3 WSW 13 22 7 12 1027.0 1027.0 13.8
23/12:30am 11.2 9.4 10.7 97 0.3 SW 11 19 6 10 1026.8 1026.8 13.8
23/12:00am 11.1 8.8 10.5 96 0.3 WSW 13 17 7 9 1026.6 1026.6 13.6
 
Date/Time
EST
Temp
°C
App
Temp
°C
Dew
Point
Rel
Hum
%
Delta-T
°C
Wind Press
QNH
hPa
Press
MSL
hPa
Rain
since 9 am
mm
Dir
 
Spd
km/h
Gust
km/h
Spd
kts
Gust
kts
22/11:30pm 10.9 8.6 10.3 96 0.3 WSW 13 19 7 10 1026.6 1026.6 13.2
22/11:00pm 10.9 8.5 10.1 95 0.4 WSW 13 19 7 10 1026.6 1026.6 13.2
22/10:30pm 10.9 8.6 10.3 96 0.3 WSW 13 24 7 13 1026.1 1026.1 13.2
22/10:00pm 11.2 10.1 10.6 96 0.3 WSW 7 11 4 6 1026.2 1026.2 13.2
22/09:30pm 11.3 10.2 10.7 96 0.3 W 7 13 4 7 1026.2 1026.2 13.2
22/09:00pm 11.3 9.8 10.7 96 0.3 WSW 9 15 5 8 1026.0 1026.0 13.0
22/08:30pm 11.5 9.3 10.9 96 0.3 WSW 13 19 7 10 1025.8 1025.8 12.8
22/08:00pm 11.4 9.1 10.6 95 0.4 WSW 13 17 7 9 1025.8 1025.8 12.2
22/07:30pm 11.6 10.1 10.7 94 0.5 SW 9 13 5 7 1025.6 1025.6 12.0
22/07:00pm 11.6 10.1 10.5 93 0.6 S 9 13 5 7 1025.1 1025.1 11.6
22/06:30pm 11.4 9.4 10.3 93 0.6 WSW 11 15 6 8 1024.6 1024.6 11.6
22/06:00pm 11.9 8.9 10.6 92 0.7 SSW 17 32 9 17 1024.5 1024.5 11.6
22/05:30pm 12.1 9.9 10.8 92 0.7 SW 13 20 7 11 1023.7 1023.7 11.0
22/05:00pm 12.4 9.4 10.8 90 0.8 SSW 17 26 9 14 1023.4 1023.4 10.6
22/04:30pm 12.6 9.4 11.2 91 0.7 SSW 19 39 10 21 1022.8 1022.8 10.4
22/04:00pm 13.3 9.7 10.7 84 1.4 SSW 20 35 11 19 1022.4 1022.4 10.0
22/03:30pm 13.7 10.4 11.0 84 1.4 SSW 19 32 10 17 1021.9 1021.9 10.0
22/03:00pm 15.0 9.8 8.9 67 3.1 SSW 26 44 14 24 1021.4 1021.3 10.0
22/02:42pm 16.3 10.7 8.8 61 3.9 S 28 46 15 25 1021.0 1020.9 10.0
22/02:30pm 16.2 12.1 10.1 67 3.2 SSW 22 41 12 22 1020.7 1020.6 10.0
22/02:19pm 16.0 10.7 9.9 67 3.2 SSW 28 46 15 25 1020.7 1020.6 10.0
22/02:00pm 15.7 10.8 10.0 69 3.0 SSW 26 46 14 25 1020.6 1020.5 10.0
22/01:33pm 15.7 10.6 10.5 71 2.8 SSW 28 46 15 25 1020.3 1020.2 10.0
22/01:30pm 15.9 10.8 10.7 71 2.8 SSW 28 44 15 24 1020.3 1020.2 10.0
22/01:00pm 14.9 9.8 10.5 75 2.3 SSW 28 46 15 25 1020.0 1019.9 10.0
22/12:41pm 15.3 10.4 11.3 77 2.1 SSW 28 59 15 32 1019.7 1019.6 10.0
22/12:30pm 15.1 11.1 11.9 81 1.7 SSW 24 43 13 23 1019.5 1019.4 10.0
22/12:00pm 13.8 8.7 11.8 88 1.1 SSW 30 48 16 26 1019.5 1019.4 10.0
22/11:30am 14.4 9.8 12.3 87 1.1 SSW 28 52 15 28 1019.4 1019.3 9.6
22/11:05am 15.1 10.5 12.4 84 1.5 S 28 46 15 25 1019.1 1019.0 9.6
22/11:00am 15.0 11.2 12.5 85 1.4 S 24 44 13 24 1019.1 1019.0 9.6
22/10:30am 14.3 12.1 13.3 94 0.6 SSW 17 30 9 16 1018.8 1018.7 9.4
22/10:26am 14.0 12.2 13.2 95 0.4 SSW 15 20 8 11 1018.7 1018.6 9.4
22/10:00am 13.8 11.9 13.0 95 0.4 S 15 30 8 16 1018.8 1018.7 5.2
22/09:59am 13.9 12.0 13.1 95 0.4 S 15 30 8 16 1018.8 1018.7 4.6
22/09:30am 13.8 13.0 13.0 95 0.4 WSW 9 15 5 8 1018.4 1018.3 1.2
22/09:00am 14.2 12.4 13.4 95 0.4 S 15 26 8 14 1018.0 1017.9 7.2
22/08:30am 13.1 11.4 12.6 97 0.3 SW 13 20 7 11 1017.6 1017.5 6.6
22/08:00am 12.4 10.1 11.8 96 0.3 WSW 15 20 8 11 1017.3 1017.2 4.6
22/07:49am 12.3 10.4 11.7 96 0.3 WSW 13 17 7 9 1017.2 1017.1 4.4
22/07:32am 12.2 9.8 11.4 95 0.4 WSW 15 22 8 12 1017.2 1017.1 3.6
22/07:30am 12.1 9.6 11.2 94 0.5 WSW 15 22 8 12 1017.1 1017.0 3.2
22/07:00am 12.2 10.1 11.1 93 0.6 SW 13 20 7 11 1016.6 1016.5 2.0
22/06:30am 12.4 11.0 11.0 91 0.7 WSW 9 15 5 8 1016.4 1016.3 0.6
22/06:00am 13.0 10.8 10.7 86 1.2 SW 13 24 7 13 1016.2 1016.1 0.0
22/05:30am 12.8 10.1 10.2 84 1.3 SW 15 20 8 11 1015.8 1015.7 0.0
22/05:00am 12.6 9.3 9.6 82 1.5 SW 17 20 9 11 1015.5 1015.4 0.0
22/04:30am 12.5 9.5 9.3 81 1.6 WSW 15 19 8 10 1015.8 1015.7 0.0
22/04:00am 12.5 10.3 9.3 81 1.6 WSW 11 17 6 9 1015.9 1015.8 0.0
22/03:30am 12.2 10.3 8.9 80 1.7 WSW 9 13 5 7 1016.0 1015.9 0.0
22/03:00am 11.9 9.6 8.9 82 1.5 WSW 11 15 6 8 1016.2 1016.1 0.0
22/02:30am 11.2 9.8 8.8 85 1.2 WSW 6 9 3 5 1016.5 1016.4 0.0
22/02:00am 11.1 9.5 8.7 85 1.2 WSW 7 11 4 6 1016.6 1016.5 0.0
22/01:30am 11.1 8.8 9.0 87 1.0 WSW 11 15 6 8 1016.5 1016.4 0.0
22/01:00am 11.0 9.4 8.9 87 1.0 WSW 7 11 4 6 1016.9 1016.8 0.0
22/12:30am 11.2 8.9 9.1 87 1.1 WSW 11 13 6 7 1017.1 1017.0 0.0
22/12:00am 11.5 9.3 9.4 87 1.1 SW 11 15 6 8 1017.3 1017.2 0.0
 
Date/Time
EST
Temp
°C
App
Temp
°C
Dew
Point
Rel
Hum
%
Delta-T
°C
Wind Press
QNH
hPa
Press
MSL
hPa
Rain
since 9 am
mm
Dir
 
Spd
km/h
Gust
km/h
Spd
kts
Gust
kts
21/11:30pm 11.7 9.6 9.8 88 1.0 SW 11 17 6 9 1017.2 1017.1 0.0
21/11:00pm 12.0 9.5 9.7 86 1.2 WSW 13 15 7 8 1017.3 1017.2 0.0
21/10:30pm 12.5 9.8 10.2 86 1.2 SW 15 20 8 11 1017.8 1017.7 0.0
21/10:00pm 12.8 10.9 10.5 86 1.2 SW 11 17 6 9 1017.9 1017.8 0.0
21/09:30pm 13.4 11.5 10.6 83 1.5 SW 11 17 6 9 1017.8 1017.7 0.0
21/09:00pm 14.1 12.3 10.9 81 1.7 SW 11 17 6 9 1018.0 1017.9 0.0
21/08:30pm 15.1 12.7 11.3 78 2.0 SW 15 22 8 12 1018.0 1017.9 0.0
21/08:00pm 15.5 12.7 11.5 77 2.2 SSW 17 26 9 14 1017.9 1017.8 0.0
21/07:30pm 15.6 13.7 11.8 78 2.1 S 13 19 7 10 1018.1 1018.0 0.0
21/07:00pm 15.4 13.6 12.0 80 1.8 SSE 13 20 7 11 1018.2 1018.1 0.0
21/06:30pm 15.8 13.1 11.8 77 2.2 S 17 24 9 13 1017.7 1017.6 0.0
21/06:00pm 16.0 13.5 12.2 78 2.1 S 17 28 9 15 1017.5 1017.4 0.0
21/05:30pm 16.3 15.5 11.7 74 2.5 S 7 9 4 5 1017.5 1017.4 0.0
21/05:00pm 16.8 16.0 11.7 72 2.8 SSE 7 13 4 7 1017.4 1017.3 0.0
21/04:30pm 17.3 15.8 11.8 70 3.0 SE 11 15 6 8 1017.2 1017.1 0.0
21/04:00pm 17.6 16.1 11.8 69 3.2 SSE 11 15 6 8 1017.3 1017.2 0.0
21/03:30pm 18.2 16.4 11.0 63 3.9 S 11 19 6 10 1017.1 1017.0 0.0
21/03:00pm 18.4 17.5 11.2 63 3.9 SE 7 11 4 6 1017.0 1016.9 0.0
21/02:30pm 18.3 16.9 10.9 62 4.0 SSE 9 11 5 6 1017.0 1016.9 0.0
21/02:00pm 18.6 17.3 11.4 63 3.9 SSE 9 13 5 7 1017.0 1016.9 0.0
21/01:30pm 18.9 16.8 11.2 61 4.2 SSE 13 17 7 9 1017.0 1016.9 0.0
21/01:00pm 18.8 16.1 11.6 63 4.0 SSE 17 20 9 11 1017.3 1017.2 0.0
21/12:30pm 20.6 19.7 11.5 56 5.1 SE 7 13 4 7 1017.5 1017.4 0.0
21/12:00pm 20.1 18.8 11.1 56 4.9 WSW 9 17 5 9 1018.0 1017.9 0.0
21/11:30am 19.5 17.8 10.0 54 5.1 W 9 17 5 9 1018.5 1018.4 0.0
21/11:00am 18.9 16.8 9.9 56 4.8 WNW 11 17 6 9 1019.0 1018.9 0.0
21/10:30am 18.1 16.4 9.7 58 4.4 W 9 15 5 8 1019.0 1018.9 0.0
21/10:00am 17.4 14.9 9.6 60 4.1 WSW 13 19 7 10 1019.1 1019.0 0.0
21/09:30am 16.5 14.1 10.1 66 3.4 WSW 13 17 7 9 1019.0 1018.9 0.0
21/09:00am 15.8 13.7 11.0 73 2.6 WSW 13 17 7 9 1018.8 1018.7 0.0
21/08:30am 14.2 12.7 10.6 79 1.9 WSW 9 13 5 7 1018.7 1018.6 0.0
21/08:00am 12.5 11.3 10.4 87 1.1 W 7 9 4 5 1018.3 1018.2 0.0
21/07:30am 11.6 10.6 10.3 92 0.7 WSW 6 7 3 4 1018.2 1018.1 0.0
21/07:00am 10.5 8.9 8.9 90 0.8 W 7 9 4 5 1018.2 1018.1 0.0
21/06:30am 11.2 9.6 8.9 86 1.1 W 7 9 4 5 1017.7 1017.6 0.0
21/06:00am 12.6 11.5 10.0 84 1.3 ESE 6 7 3 4 1017.6 1017.5 0.0
21/05:30am 13.4 12.3 10.0 80 1.8 WSW 6 9 3 5 1017.2 1017.1 0.0
21/05:00am 13.8 12.6 10.2 79 1.9 WSW 7 11 4 6 1016.6 1016.5 0.0
21/04:30am 14.0 12.1 10.4 79 1.9 WSW 11 17 6 9 1016.4 1016.3 0.0
21/04:00am 13.0 13.2 10.7 86 1.2 CALM 0 6 0 3 1016.5 1016.4 0.0
21/03:30am 14.0 13.1 11.3 84 1.4 SW 7 9 4 5 1016.4 1016.3 0.0
21/03:00am 14.7 13.6 12.0 84 1.5 WSW 9 11 5 6 1016.6 1016.5 0.0
21/02:30am 14.6 13.7 12.5 87 1.1 SW 9 13 5 7 1016.5 1016.4 0.0
21/02:00am 14.5 14.1 12.5 88 1.1 W 6 7 3 4 1016.6 1016.5 0.0
21/01:30am 14.3 14.1 12.9 91 0.8 WNW 6 7 3 4 1016.8 1016.7 0.0
21/01:00am 14.3 14.1 12.9 91 0.8 NW 6 7 3 4 1016.6 1016.5 0.0
21/12:30am 14.3 13.8 12.5 89 1.0 W 7 11 4 6 1016.7 1016.6 0.0
21/12:00am 14.3 13.7 12.3 88 1.1 W 7 11 4 6 1017.0 1016.9 0.0
 
Date/Time
EST
Temp
°C
App
Temp
°C
Dew
Point
Rel
Hum
%
Delta-T
°C
Wind Press
QNH
hPa
Press
MSL
hPa
Rain
since 9 am
mm
Dir
 
Spd
km/h
Gust
km/h
Spd
kts
Gust
kts
20/11:30pm 15.5 14.5 13.3 87 1.2 SW 11 17 6 9 1016.6 1016.5 0.0
20/11:00pm 14.6 13.9 13.1 91 0.8 SW 9 15 5 8 1016.8 1016.7 0.0
20/10:30pm 15.0 14.7 13.4 90 0.9 SW 7 11 4 6 1016.2 1016.1 0.0
20/10:00pm 14.4 13.6 13.0 91 0.8 WSW 9 11 5 6 1016.5 1016.4 0.0
20/09:30pm 15.1 14.6 12.6 85 1.4 SW 7 11 4 6 1016.4 1016.3 0.0
20/09:00pm 17.1 17.9 14.7 86 1.4 ESE 4 17 2 9 1016.3 1016.2 0.0
20/08:30pm 16.0 16.6 14.2 89 1.0 S 4 9 2 5 1015.9 1015.8 0.0
20/08:00pm 16.6 17.6 14.4 87 1.3 SW 2 6 1 3 1015.7 1015.6 0.0
20/07:30pm 17.3 17.7 14.8 85 1.4 SSE 6 6 3 3 1015.5 1015.4 0.0
20/07:00pm 17.5 18.3 14.8 84 1.6 WSW 4 9 2 5 1015.3 1015.2 0.0

Other Formats:

Comma delimited format used in spreadsheet applications
http://www.bom.gov.au/fwo/IDN60801/IDN60801.95761.axf

JavaScript Object Notation format (JSON) in row-major order
http://www.bom.gov.au/fwo/IDN60801/IDN60801.95761.json